East Mansfield, Massachusetts
Current Conditions -  °F | °C
As of 11:53 AM on Tuesday 21 Oct 2014 (Local Time) from KOWD Reporting Station
Broken Clouds Broken Clouds  
Wind Chill: 62°   Ceiling: 2000
Heat Index: 62°   Visibility: 10mi
Dew Point: 54°   Wind: 5mph
Humidity: 75%   Direction: NA
Pressure: 29.94"   Gusts: NA
Location:  42.02°N, 71.18°W
Report Text: KOWD 211553Z VRB04KT 10SM BKN020 17/12 A2994 RMK AO2 SLP137 T01670122
Loading
Personal Weather Stations






























Interactive Weather Map
Tropical Storm Tracking
New forecast layout! Learn more

10-Day Weather Forecast

Advertisements
Track Severe Weather on mobile